sensor_id;sensor_type;location;lat;lon;timestamp;temperature;humidity
59975;DHT22;62136;-35.664;-63.766;2023-07-13T00:00:26;12.70;60.90
59975;DHT22;62136;-35.664;-63.766;2023-07-13T00:02:53;12.70;60.70
59975;DHT22;62136;-35.664;-63.766;2023-07-13T00:05:24;12.70;60.80
59975;DHT22;62136;-35.664;-63.766;2023-07-13T00:07:52;12.70;61.00
59975;DHT22;62136;-35.664;-63.766;2023-07-13T00:10:21;12.70;61.00
59975;DHT22;62136;-35.664;-63.766;2023-07-13T00:12:48;12.70;60.90
59975;DHT22;62136;-35.664;-63.766;2023-07-13T00:17:46;12.70;61.00
59975;DHT22;62136;-35.664;-63.766;2023-07-13T00:20:13;12.70;61.00
59975;DHT22;62136;-35.664;-63.766;2023-07-13T00:22:40;12.70;61.00
59975;DHT22;62136;-35.664;-63.766;2023-07-13T00:25:09;12.70;61.00
59975;DHT22;62136;-35.664;-63.766;2023-07-13T00:27:37;12.70;61.00
59975;DHT22;62136;-35.664;-63.766;2023-07-13T00:30:04;12.70;61.00
59975;DHT22;62136;-35.664;-63.766;2023-07-13T00:32:31;12.70;61.00
59975;DHT22;62136;-35.664;-63.766;2023-07-13T00:34:58;12.60;61.00
59975;DHT22;62136;-35.664;-63.766;2023-07-13T00:37:26;12.70;61.00
59975;DHT22;62136;-35.664;-63.766;2023-07-13T00:39:53;12.70;61.00
59975;DHT22;62136;-35.664;-63.766;2023-07-13T00:42:20;12.70;61.10
59975;DHT22;62136;-35.664;-63.766;2023-07-13T00:46:02;12.70;60.90
59975;DHT22;62136;-35.664;-63.766;2023-07-13T00:47:53;12.70;61.00
59975;DHT22;62136;-35.664;-63.766;2023-07-13T00:50:22;12.60;61.00
59975;DHT22;62136;-35.664;-63.766;2023-07-13T00:52:53;12.70;61.10
59975;DHT22;62136;-35.664;-63.766;2023-07-13T00:55:21;12.70;61.10
59975;DHT22;62136;-35.664;-63.766;2023-07-13T00:57:49;12.60;61.00
59975;DHT22;62136;-35.664;-63.766;2023-07-13T01:00:16;12.70;61.00
59975;DHT22;62136;-35.664;-63.766;2023-07-13T01:02:45;12.60;61.00
59975;DHT22;62136;-35.664;-63.766;2023-07-13T01:05:15;12.60;61.00
59975;DHT22;62136;-35.664;-63.766;2023-07-13T01:07:43;12.60;61.00
59975;DHT22;62136;-35.664;-63.766;2023-07-13T01:10:12;12.60;60.90
59975;DHT22;62136;-35.664;-63.766;2023-07-13T01:12:39;12.60;61.10
59975;DHT22;62136;-35.664;-63.766;2023-07-13T01:15:42;12.60;61.00
59975;DHT22;62136;-35.664;-63.766;2023-07-13T01:18:16;12.60;61.00
59975;DHT22;62136;-35.664;-63.766;2023-07-13T01:20:52;12.60;61.10
59975;DHT22;62136;-35.664;-63.766;2023-07-13T01:23:19;12.60;60.90
59975;DHT22;62136;-35.664;-63.766;2023-07-13T01:25:46;12.60;61.00
59975;DHT22;62136;-35.664;-63.766;2023-07-13T01:28:13;12.60;61.10
59975;DHT22;62136;-35.664;-63.766;2023-07-13T01:30:44;12.60;60.90
59975;DHT22;62136;-35.664;-63.766;2023-07-13T01:33:17;12.60;61.00
59975;DHT22;62136;-35.664;-63.766;2023-07-13T01:35:45;12.60;61.10
59975;DHT22;62136;-35.664;-63.766;2023-07-13T01:38:15;12.60;61.00
59975;DHT22;62136;-35.664;-63.766;2023-07-13T01:40:43;12.60;60.90
59975;DHT22;62136;-35.664;-63.766;2023-07-13T01:43:11;12.60;61.00
59975;DHT22;62136;-35.664;-63.766;2023-07-13T01:45:38;12.60;61.00
59975;DHT22;62136;-35.664;-63.766;2023-07-13T01:48:08;12.60;61.00
59975;DHT22;62136;-35.664;-63.766;2023-07-13T01:50:37;12.60;61.00
59975;DHT22;62136;-35.664;-63.766;2023-07-13T01:53:04;12.60;61.10
59975;DHT22;62136;-35.664;-63.766;2023-07-13T01:55:31;12.60;60.90
59975;DHT22;62136;-35.664;-63.766;2023-07-13T01:57:58;12.60;61.00
59975;DHT22;62136;-35.664;-63.766;2023-07-13T02:00:25;12.50;61.00
59975;DHT22;62136;-35.664;-63.766;2023-07-13T02:02:52;12.60;60.90
59975;DHT22;62136;-35.664;-63.766;2023-07-13T02:05:19;12.60;61.00
59975;DHT22;62136;-35.664;-63.766;2023-07-13T02:07:46;12.60;61.00
59975;DHT22;62136;-35.664;-63.766;2023-07-13T02:10:13;12.60;61.00
59975;DHT22;62136;-35.664;-63.766;2023-07-13T02:12:41;12.60;61.00
59975;DHT22;62136;-35.664;-63.766;2023-07-13T02:15:09;12.60;60.90
59975;DHT22;62136;-35.664;-63.766;2023-07-13T02:17:37;12.60;60.90
59975;DHT22;62136;-35.664;-63.766;2023-07-13T02:20:05;12.60;61.00
59975;DHT22;62136;-35.664;-63.766;2023-07-13T02:22:32;12.60;60.80
59975;DHT22;62136;-35.664;-63.766;2023-07-13T02:24:59;12.60;60.90
59975;DHT22;62136;-35.664;-63.766;2023-07-13T02:27:26;12.60;60.90
59975;DHT22;62136;-35.664;-63.766;2023-07-13T02:29:53;12.60;60.80
59975;DHT22;62136;-35.664;-63.766;2023-07-13T02:32:20;12.50;60.80
59975;DHT22;62136;-35.664;-63.766;2023-07-13T02:34:47;12.60;60.80
59975;DHT22;62136;-35.664;-63.766;2023-07-13T02:37:14;12.50;60.80
59975;DHT22;62136;-35.664;-63.766;2023-07-13T02:39:41;12.50;60.90
59975;DHT22;62136;-35.664;-63.766;2023-07-13T02:42:08;12.50;60.80
59975;DHT22;62136;-35.664;-63.766;2023-07-13T02:44:35;12.50;60.90
59975;DHT22;62136;-35.664;-63.766;2023-07-13T02:47:02;12.50;60.90
59975;DHT22;62136;-35.664;-63.766;2023-07-13T02:49:29;12.50;60.90
59975;DHT22;62136;-35.664;-63.766;2023-07-13T02:51:56;12.50;60.80
59975;DHT22;62136;-35.664;-63.766;2023-07-13T02:54:23;12.50;60.80
59975;DHT22;62136;-35.664;-63.766;2023-07-13T02:56:50;12.50;61.00
59975;DHT22;62136;-35.664;-63.766;2023-07-13T02:59:17;12.50;60.80
59975;DHT22;62136;-35.664;-63.766;2023-07-13T03:01:44;12.50;60.90
59975;DHT22;62136;-35.664;-63.766;2023-07-13T03:04:11;12.50;61.00
59975;DHT22;62136;-35.664;-63.766;2023-07-13T03:06:38;12.50;60.80
59975;DHT22;62136;-35.664;-63.766;2023-07-13T03:09:05;12.50;60.80
59975;DHT22;62136;-35.664;-63.766;2023-07-13T03:11:32;12.50;61.00
59975;DHT22;62136;-35.664;-63.766;2023-07-13T03:13:59;12.50;60.80
59975;DHT22;62136;-35.664;-63.766;2023-07-13T03:16:26;12.50;60.80
59975;DHT22;62136;-35.664;-63.766;2023-07-13T03:18:53;12.50;60.80
59975;DHT22;62136;-35.664;-63.766;2023-07-13T03:21:20;12.50;61.00
59975;DHT22;62136;-35.664;-63.766;2023-07-13T03:23:48;12.50;60.90
59975;DHT22;62136;-35.664;-63.766;2023-07-13T03:26:19;12.50;60.80
59975;DHT22;62136;-35.664;-63.766;2023-07-13T03:28:47;12.50;61.00
59975;DHT22;62136;-35.664;-63.766;2023-07-13T03:31:18;12.50;61.00
59975;DHT22;62136;-35.664;-63.766;2023-07-13T03:33:46;12.50;60.80
59975;DHT22;62136;-35.664;-63.766;2023-07-13T03:36:17;12.50;61.00
59975;DHT22;62136;-35.664;-63.766;2023-07-13T03:38:49;12.50;61.00
59975;DHT22;62136;-35.664;-63.766;2023-07-13T03:41:17;12.50;61.00
59975;DHT22;62136;-35.664;-63.766;2023-07-13T03:43:44;12.50;61.00
59975;DHT22;62136;-35.664;-63.766;2023-07-13T03:46:11;12.40;61.10
59975;DHT22;62136;-35.664;-63.766;2023-07-13T03:48:38;12.50;61.00
59975;DHT22;62136;-35.664;-63.766;2023-07-13T03:51:07;12.50;61.10
59975;DHT22;62136;-35.664;-63.766;2023-07-13T03:53:39;12.50;61.20
59975;DHT22;62136;-35.664;-63.766;2023-07-13T03:56:07;12.50;60.90
59975;DHT22;62136;-35.664;-63.766;2023-07-13T03:58:38;12.50;60.90
59975;DHT22;62136;-35.664;-63.766;2023-07-13T04:01:08;12.50;61.00
59975;DHT22;62136;-35.664;-63.766;2023-07-13T04:03:35;12.50;61.00
59975;DHT22;62136;-35.664;-63.766;2023-07-13T04:06:05;12.40;60.80
59975;DHT22;62136;-35.664;-63.766;2023-07-13T04:08:34;12.50;61.00
59975;DHT22;62136;-35.664;-63.766;2023-07-13T04:11:02;12.40;61.00
59975;DHT22;62136;-35.664;-63.766;2023-07-13T04:13:30;12.50;61.00
59975;DHT22;62136;-35.664;-63.766;2023-07-13T04:15:56;12.50;61.10
59975;DHT22;62136;-35.664;-63.766;2023-07-13T04:18:23;12.50;61.10
59975;DHT22;62136;-35.664;-63.766;2023-07-13T04:20:51;12.50;61.00
59975;DHT22;62136;-35.664;-63.766;2023-07-13T04:23:18;12.40;61.00
59975;DHT22;62136;-35.664;-63.766;2023-07-13T04:25:49;12.40;61.00
59975;DHT22;62136;-35.664;-63.766;2023-07-13T04:28:23;12.40;61.10
59975;DHT22;62136;-35.664;-63.766;2023-07-13T04:30:50;12.40;61.10
59975;DHT22;62136;-35.664;-63.766;2023-07-13T04:33:18;12.40;61.20
59975;DHT22;62136;-35.664;-63.766;2023-07-13T04:35:49;12.40;61.10
59975;DHT22;62136;-35.664;-63.766;2023-07-13T04:38:21;12.40;61.20
59975;DHT22;62136;-35.664;-63.766;2023-07-13T04:40:47;12.40;61.00
59975;DHT22;62136;-35.664;-63.766;2023-07-13T04:43:14;12.40;61.20
59975;DHT22;62136;-35.664;-63.766;2023-07-13T04:45:42;12.40;61.20
59975;DHT22;62136;-35.664;-63.766;2023-07-13T04:48:09;12.40;61.10
59975;DHT22;62136;-35.664;-63.766;2023-07-13T04:50:39;12.30;61.10
59975;DHT22;62136;-35.664;-63.766;2023-07-13T04:53:06;12.30;61.10
59975;DHT22;62136;-35.664;-63.766;2023-07-13T04:55:33;12.30;61.00
59975;DHT22;62136;-35.664;-63.766;2023-07-13T04:58:00;12.30;61.10
59975;DHT22;62136;-35.664;-63.766;2023-07-13T05:00:27;12.30;60.90
59975;DHT22;62136;-35.664;-63.766;2023-07-13T05:02:58;12.30;61.00
59975;DHT22;62136;-35.664;-63.766;2023-07-13T05:05:25;12.30;60.90
59975;DHT22;62136;-35.664;-63.766;2023-07-13T05:07:53;12.30;60.90
59975;DHT22;62136;-35.664;-63.766;2023-07-13T05:10:20;12.30;60.80
59975;DHT22;62136;-35.664;-63.766;2023-07-13T05:12:47;12.30;60.70
59975;DHT22;62136;-35.664;-63.766;2023-07-13T05:15:14;12.30;60.80
59975;DHT22;62136;-35.664;-63.766;2023-07-13T05:17:41;12.30;61.30
59975;DHT22;62136;-35.664;-63.766;2023-07-13T05:20:09;12.30;60.70
59975;DHT22;62136;-35.664;-63.766;2023-07-13T05:22:36;12.30;60.70
59975;DHT22;62136;-35.664;-63.766;2023-07-13T05:25:05;12.30;60.60
59975;DHT22;62136;-35.664;-63.766;2023-07-13T05:27:36;12.30;60.60
59975;DHT22;62136;-35.664;-63.766;2023-07-13T05:30:04;12.30;60.70
59975;DHT22;62136;-35.664;-63.766;2023-07-13T05:32:31;12.30;60.60
59975;DHT22;62136;-35.664;-63.766;2023-07-13T05:34:59;12.30;60.50
59975;DHT22;62136;-35.664;-63.766;2023-07-13T05:37:26;12.20;60.50
59975;DHT22;62136;-35.664;-63.766;2023-07-13T05:39:52;12.30;60.50
59975;DHT22;62136;-35.664;-63.766;2023-07-13T05:42:19;12.30;60.40
59975;DHT22;62136;-35.664;-63.766;2023-07-13T05:44:46;12.30;60.50
59975;DHT22;62136;-35.664;-63.766;2023-07-13T05:47:13;12.30;60.50
59975;DHT22;62136;-35.664;-63.766;2023-07-13T05:49:41;12.30;60.40
59975;DHT22;62136;-35.664;-63.766;2023-07-13T05:52:08;12.30;60.40
59975;DHT22;62136;-35.664;-63.766;2023-07-13T05:54:35;12.30;60.60
59975;DHT22;62136;-35.664;-63.766;2023-07-13T05:57:02;12.30;60.50
59975;DHT22;62136;-35.664;-63.766;2023-07-13T05:59:29;12.30;60.50
59975;DHT22;62136;-35.664;-63.766;2023-07-13T06:01:56;12.20;60.50
59975;DHT22;62136;-35.664;-63.766;2023-07-13T06:04:23;12.30;60.40
59975;DHT22;62136;-35.664;-63.766;2023-07-13T06:06:50;12.30;60.50
59975;DHT22;62136;-35.664;-63.766;2023-07-13T06:09:17;12.20;60.50
59975;DHT22;62136;-35.664;-63.766;2023-07-13T06:11:44;12.30;60.40
59975;DHT22;62136;-35.664;-63.766;2023-07-13T06:14:11;12.30;60.50
59975;DHT22;62136;-35.664;-63.766;2023-07-13T06:16:39;12.20;60.50
59975;DHT22;62136;-35.664;-63.766;2023-07-13T06:19:06;12.30;60.40
59975;DHT22;62136;-35.664;-63.766;2023-07-13T06:21:32;12.30;60.40
59975;DHT22;62136;-35.664;-63.766;2023-07-13T06:23:59;12.20;60.40
59975;DHT22;62136;-35.664;-63.766;2023-07-13T06:26:26;12.20;60.40
59975;DHT22;62136;-35.664;-63.766;2023-07-13T06:28:54;12.20;60.40
59975;DHT22;62136;-35.664;-63.766;2023-07-13T06:31:21;12.20;60.50
59975;DHT22;62136;-35.664;-63.766;2023-07-13T06:33:48;12.20;60.40
59975;DHT22;62136;-35.664;-63.766;2023-07-13T06:36:15;12.20;60.40
59975;DHT22;62136;-35.664;-63.766;2023-07-13T06:38:42;12.20;60.60
59975;DHT22;62136;-35.664;-63.766;2023-07-13T06:41:09;12.20;60.50
59975;DHT22;62136;-35.664;-63.766;2023-07-13T06:43:36;12.20;60.50
59975;DHT22;62136;-35.664;-63.766;2023-07-13T06:46:03;12.20;60.50
59975;DHT22;62136;-35.664;-63.766;2023-07-13T06:48:30;12.20;60.30
59975;DHT22;62136;-35.664;-63.766;2023-07-13T06:50:57;12.20;60.40
59975;DHT22;62136;-35.664;-63.766;2023-07-13T06:53:24;12.20;60.40
59975;DHT22;62136;-35.664;-63.766;2023-07-13T06:55:51;12.20;60.40
59975;DHT22;62136;-35.664;-63.766;2023-07-13T06:58:19;12.20;60.30
59975;DHT22;62136;-35.664;-63.766;2023-07-13T07:00:49;12.20;60.40
59975;DHT22;62136;-35.664;-63.766;2023-07-13T07:03:16;12.20;60.30
59975;DHT22;62136;-35.664;-63.766;2023-07-13T07:05:43;12.20;60.30
59975;DHT22;62136;-35.664;-63.766;2023-07-13T07:08:10;12.20;60.50
59975;DHT22;62136;-35.664;-63.766;2023-07-13T07:10:37;12.20;60.60
59975;DHT22;62136;-35.664;-63.766;2023-07-13T07:13:04;12.20;60.50
59975;DHT22;62136;-35.664;-63.766;2023-07-13T07:15:31;12.20;60.50
59975;DHT22;62136;-35.664;-63.766;2023-07-13T07:17:58;12.20;60.50
59975;DHT22;62136;-35.664;-63.766;2023-07-13T07:20:25;12.20;61.10
59975;DHT22;62136;-35.664;-63.766;2023-07-13T07:22:53;12.20;60.50
59975;DHT22;62136;-35.664;-63.766;2023-07-13T07:25:20;12.20;60.60
59975;DHT22;62136;-35.664;-63.766;2023-07-13T07:27:47;12.20;60.70
59975;DHT22;62136;-35.664;-63.766;2023-07-13T07:30:14;12.20;60.60
59975;DHT22;62136;-35.664;-63.766;2023-07-13T07:32:41;12.20;60.60
59975;DHT22;62136;-35.664;-63.766;2023-07-13T07:35:08;12.20;60.60
59975;DHT22;62136;-35.664;-63.766;2023-07-13T07:37:35;12.20;60.60
59975;DHT22;62136;-35.664;-63.766;2023-07-13T07:40:03;12.20;60.70
59975;DHT22;62136;-35.664;-63.766;2023-07-13T07:42:30;12.20;60.80
59975;DHT22;62136;-35.664;-63.766;2023-07-13T07:44:57;12.20;60.70
59975;DHT22;62136;-35.664;-63.766;2023-07-13T07:47:24;12.20;60.80
59975;DHT22;62136;-35.664;-63.766;2023-07-13T07:49:51;12.20;60.70
59975;DHT22;62136;-35.664;-63.766;2023-07-13T07:52:18;12.20;60.60
59975;DHT22;62136;-35.664;-63.766;2023-07-13T07:54:45;12.20;60.70
59975;DHT22;62136;-35.664;-63.766;2023-07-13T07:57:12;12.10;60.80
59975;DHT22;62136;-35.664;-63.766;2023-07-13T07:59:39;12.10;60.70
59975;DHT22;62136;-35.664;-63.766;2023-07-13T08:02:08;12.20;60.80
59975;DHT22;62136;-35.664;-63.766;2023-07-13T08:04:35;12.20;60.80
59975;DHT22;62136;-35.664;-63.766;2023-07-13T08:07:02;12.20;60.70
59975;DHT22;62136;-35.664;-63.766;2023-07-13T08:09:29;12.20;60.80
59975;DHT22;62136;-35.664;-63.766;2023-07-13T08:11:56;12.20;60.80
59975;DHT22;62136;-35.664;-63.766;2023-07-13T08:14:23;12.20;60.80
59975;DHT22;62136;-35.664;-63.766;2023-07-13T08:16:50;12.20;60.80
59975;DHT22;62136;-35.664;-63.766;2023-07-13T08:19:17;12.20;60.80
59975;DHT22;62136;-35.664;-63.766;2023-07-13T08:21:44;12.10;60.90
59975;DHT22;62136;-35.664;-63.766;2023-07-13T08:24:11;12.20;60.80
59975;DHT22;62136;-35.664;-63.766;2023-07-13T08:26:38;12.20;60.90
59975;DHT22;62136;-35.664;-63.766;2023-07-13T08:29:05;12.10;60.90
59975;DHT22;62136;-35.664;-63.766;2023-07-13T08:31:32;12.10;60.80
59975;DHT22;62136;-35.664;-63.766;2023-07-13T08:33:58;12.10;60.80
59975;DHT22;62136;-35.664;-63.766;2023-07-13T08:36:26;12.20;60.90
59975;DHT22;62136;-35.664;-63.766;2023-07-13T08:38:54;12.20;60.90
59975;DHT22;62136;-35.664;-63.766;2023-07-13T08:41:21;12.10;60.80
59975;DHT22;62136;-35.664;-63.766;2023-07-13T08:43:56;12.20;61.00
59975;DHT22;62136;-35.664;-63.766;2023-07-13T08:46:37;12.20;61.00
59975;DHT22;62136;-35.664;-63.766;2023-07-13T08:49:13;12.10;60.90
59975;DHT22;62136;-35.664;-63.766;2023-07-13T08:51:50;12.10;60.90
59975;DHT22;62136;-35.664;-63.766;2023-07-13T08:56:50;12.20;61.10
59975;DHT22;62136;-35.664;-63.766;2023-07-13T08:59:25;12.10;61.00
59975;DHT22;62136;-35.664;-63.766;2023-07-13T09:02:18;12.10;61.00
59975;DHT22;62136;-35.664;-63.766;2023-07-13T09:07:50;12.10;61.00
59975;DHT22;62136;-35.664;-63.766;2023-07-13T09:10:28;12.10;61.10
59975;DHT22;62136;-35.664;-63.766;2023-07-13T09:15:48;12.10;61.20
59975;DHT22;62136;-35.664;-63.766;2023-07-13T09:20:50;12.10;61.10
59975;DHT22;62136;-35.664;-63.766;2023-07-13T09:23:21;12.10;61.10
59975;DHT22;62136;-35.664;-63.766;2023-07-13T09:25:54;12.10;61.10
59975;DHT22;62136;-35.664;-63.766;2023-07-13T09:28:28;12.10;61.20
59975;DHT22;62136;-35.664;-63.766;2023-07-13T09:31:01;12.10;61.70
59975;DHT22;62136;-35.664;-63.766;2023-07-13T09:33:33;12.10;61.20
59975;DHT22;62136;-35.664;-63.766;2023-07-13T09:36:05;12.10;61.20
59975;DHT22;62136;-35.664;-63.766;2023-07-13T09:38:42;12.10;61.20
59975;DHT22;62136;-35.664;-63.766;2023-07-13T09:44:14;12.10;61.20
59975;DHT22;62136;-35.664;-63.766;2023-07-13T09:46:53;12.10;61.20
59975;DHT22;62136;-35.664;-63.766;2023-07-13T09:49:29;12.10;61.20
59975;DHT22;62136;-35.664;-63.766;2023-07-13T09:52:05;12.10;61.30
59975;DHT22;62136;-35.664;-63.766;2023-07-13T09:54:36;12.10;61.20
59975;DHT22;62136;-35.664;-63.766;2023-07-13T09:57:15;12.10;61.20
59975;DHT22;62136;-35.664;-63.766;2023-07-13T09:59:48;12.10;61.20
59975;DHT22;62136;-35.664;-63.766;2023-07-13T10:02:30;12.10;61.40
59975;DHT22;62136;-35.664;-63.766;2023-07-13T10:05:01;12.00;61.20
59975;DHT22;62136;-35.664;-63.766;2023-07-13T10:07:30;12.10;61.30
59975;DHT22;62136;-35.664;-63.766;2023-07-13T10:09:59;12.10;61.30
59975;DHT22;62136;-35.664;-63.766;2023-07-13T10:12:34;12.10;61.30
59975;DHT22;62136;-35.664;-63.766;2023-07-13T10:15:02;12.10;61.20
59975;DHT22;62136;-35.664;-63.766;2023-07-13T10:17:32;12.10;61.30
59975;DHT22;62136;-35.664;-63.766;2023-07-13T10:20:04;12.10;61.30
59975;DHT22;62136;-35.664;-63.766;2023-07-13T10:23:05;12.10;61.30
59975;DHT22;62136;-35.664;-63.766;2023-07-13T10:25:41;12.10;61.30
59975;DHT22;62136;-35.664;-63.766;2023-07-13T10:30:53;12.10;61.30
59975;DHT22;62136;-35.664;-63.766;2023-07-13T10:33:22;12.10;61.30
59975;DHT22;62136;-35.664;-63.766;2023-07-13T10:35:54;12.00;61.40
59975;DHT22;62136;-35.664;-63.766;2023-07-13T10:38:25;12.10;61.30
59975;DHT22;62136;-35.664;-63.766;2023-07-13T10:41:05;12.10;61.40
59975;DHT22;62136;-35.664;-63.766;2023-07-13T10:43:42;12.00;61.30
59975;DHT22;62136;-35.664;-63.766;2023-07-13T10:46:12;12.10;61.20
59975;DHT22;62136;-35.664;-63.766;2023-07-13T10:48:43;12.10;61.40
59975;DHT22;62136;-35.664;-63.766;2023-07-13T10:51:16;12.00;61.40
59975;DHT22;62136;-35.664;-63.766;2023-07-13T10:53:44;12.00;61.40
59975;DHT22;62136;-35.664;-63.766;2023-07-13T10:58:42;12.10;61.40
59975;DHT22;62136;-35.664;-63.766;2023-07-13T11:01:15;12.00;61.40
59975;DHT22;62136;-35.664;-63.766;2023-07-13T11:03:55;12.00;61.20
59975;DHT22;62136;-35.664;-63.766;2023-07-13T11:08:57;12.00;61.30
59975;DHT22;62136;-35.664;-63.766;2023-07-13T11:21:26;12.00;61.20
59975;DHT22;62136;-35.664;-63.766;2023-07-13T11:29:33;12.00;61.20
59975;DHT22;62136;-35.664;-63.766;2023-07-13T11:32:15;12.00;61.40
59975;DHT22;62136;-35.664;-63.766;2023-07-13T11:34:47;12.00;61.40
59975;DHT22;62136;-35.664;-63.766;2023-07-13T11:37:16;12.00;61.50
59975;DHT22;62136;-35.664;-63.766;2023-07-13T11:39:47;12.10;61.50
59975;DHT22;62136;-35.664;-63.766;2023-07-13T11:42:17;12.10;61.50
59975;DHT22;62136;-35.664;-63.766;2023-07-13T11:44:48;12.00;61.40
59975;DHT22;62136;-35.664;-63.766;2023-07-13T11:47:18;12.00;61.50
59975;DHT22;62136;-35.664;-63.766;2023-07-13T11:49:50;12.00;61.50
59975;DHT22;62136;-35.664;-63.766;2023-07-13T11:52:23;12.10;61.40
59975;DHT22;62136;-35.664;-63.766;2023-07-13T11:54:55;12.10;61.50
59975;DHT22;62136;-35.664;-63.766;2023-07-13T11:57:26;12.10;61.50
59975;DHT22;62136;-35.664;-63.766;2023-07-13T11:59:55;12.00;61.50
59975;DHT22;62136;-35.664;-63.766;2023-07-13T12:02:37;12.10;61.60
59975;DHT22;62136;-35.664;-63.766;2023-07-13T12:05:05;12.10;61.60
59975;DHT22;62136;-35.664;-63.766;2023-07-13T12:07:36;12.10;61.60
59975;DHT22;62136;-35.664;-63.766;2023-07-13T12:10:42;12.10;61.70
59975;DHT22;62136;-35.664;-63.766;2023-07-13T12:13:13;12.10;61.70
59975;DHT22;62136;-35.664;-63.766;2023-07-13T12:15:45;12.10;61.60
59975;DHT22;62136;-35.664;-63.766;2023-07-13T12:18:18;12.10;61.80
59975;DHT22;62136;-35.664;-63.766;2023-07-13T12:20:47;12.20;61.70
59975;DHT22;62136;-35.664;-63.766;2023-07-13T12:23:30;12.10;61.50
59975;DHT22;62136;-35.664;-63.766;2023-07-13T12:26:01;12.10;61.60
59975;DHT22;62136;-35.664;-63.766;2023-07-13T12:28:43;12.10;61.70
59975;DHT22;62136;-35.664;-63.766;2023-07-13T12:31:29;12.10;61.70
59975;DHT22;62136;-35.664;-63.766;2023-07-13T12:34:08;12.10;61.80
59975;DHT22;62136;-35.664;-63.766;2023-07-13T12:41:45;12.10;62.00
59975;DHT22;62136;-35.664;-63.766;2023-07-13T12:44:39;12.20;62.00
59975;DHT22;62136;-35.664;-63.766;2023-07-13T12:47:09;12.10;62.00
59975;DHT22;62136;-35.664;-63.766;2023-07-13T12:49:43;12.20;62.20
59975;DHT22;62136;-35.664;-63.766;2023-07-13T12:52:16;12.20;62.10
59975;DHT22;62136;-35.664;-63.766;2023-07-13T12:54:54;12.20;62.20
59975;DHT22;62136;-35.664;-63.766;2023-07-13T12:57:23;12.20;62.30
59975;DHT22;62136;-35.664;-63.766;2023-07-13T12:59:54;12.20;62.30
59975;DHT22;62136;-35.664;-63.766;2023-07-13T13:02:33;12.30;62.30
59975;DHT22;62136;-35.664;-63.766;2023-07-13T13:05:02;12.30;62.30
59975;DHT22;62136;-35.664;-63.766;2023-07-13T13:07:31;12.30;62.30
59975;DHT22;62136;-35.664;-63.766;2023-07-13T13:09:58;12.30;62.40
59975;DHT22;62136;-35.664;-63.766;2023-07-13T13:12:25;12.40;62.60
59975;DHT22;62136;-35.664;-63.766;2023-07-13T13:14:52;12.30;62.50
59975;DHT22;62136;-35.664;-63.766;2023-07-13T13:17:24;12.30;62.50
59975;DHT22;62136;-35.664;-63.766;2023-07-13T13:19:53;12.40;62.60
59975;DHT22;62136;-35.664;-63.766;2023-07-13T13:22:21;12.40;62.50
59975;DHT22;62136;-35.664;-63.766;2023-07-13T13:24:48;12.40;62.60
59975;DHT22;62136;-35.664;-63.766;2023-07-13T13:27:20;12.40;62.50
59975;DHT22;62136;-35.664;-63.766;2023-07-13T13:29:50;12.40;62.50
59975;DHT22;62136;-35.664;-63.766;2023-07-13T13:32:20;12.40;63.10
59975;DHT22;62136;-35.664;-63.766;2023-07-13T13:34:47;12.40;62.70
59975;DHT22;62136;-35.664;-63.766;2023-07-13T13:37:22;12.40;62.70
59975;DHT22;62136;-35.664;-63.766;2023-07-13T13:39:51;12.40;62.70
59975;DHT22;62136;-35.664;-63.766;2023-07-13T13:42:19;12.40;62.70
59975;DHT22;62136;-35.664;-63.766;2023-07-13T13:44:48;12.40;62.60
59975;DHT22;62136;-35.664;-63.766;2023-07-13T13:47:30;12.40;62.60
59975;DHT22;62136;-35.664;-63.766;2023-07-13T13:49:58;12.40;62.70
59975;DHT22;62136;-35.664;-63.766;2023-07-13T13:52:25;12.40;62.80
59975;DHT22;62136;-35.664;-63.766;2023-07-13T13:54:52;12.40;62.80
59975;DHT22;62136;-35.664;-63.766;2023-07-13T13:57:25;12.40;62.60
59975;DHT22;62136;-35.664;-63.766;2023-07-13T13:59:52;12.40;62.70
59975;DHT22;62136;-35.664;-63.766;2023-07-13T14:02:25;12.40;62.70
59975;DHT22;62136;-35.664;-63.766;2023-07-13T14:05:01;12.50;62.80
59975;DHT22;62136;-35.664;-63.766;2023-07-13T14:07:29;12.50;62.60
59975;DHT22;62136;-35.664;-63.766;2023-07-13T14:09:58;12.50;62.70
59975;DHT22;62136;-35.664;-63.766;2023-07-13T14:12:28;12.50;62.50
59975;DHT22;62136;-35.664;-63.766;2023-07-13T14:14:56;12.50;62.20
59975;DHT22;62136;-35.664;-63.766;2023-07-13T14:17:26;12.50;62.30
59975;DHT22;62136;-35.664;-63.766;2023-07-13T14:19:54;12.50;62.20
59975;DHT22;62136;-35.664;-63.766;2023-07-13T14:22:25;12.50;62.10
59975;DHT22;62136;-35.664;-63.766;2023-07-13T14:24:55;12.50;61.80
59975;DHT22;62136;-35.664;-63.766;2023-07-13T14:27:25;12.50;61.70
59975;DHT22;62136;-35.664;-63.766;2023-07-13T14:29:52;12.50;61.40
59975;DHT22;62136;-35.664;-63.766;2023-07-13T14:32:19;12.50;61.10
59975;DHT22;62136;-35.664;-63.766;2023-07-13T14:34:46;12.50;61.10
59975;DHT22;62136;-35.664;-63.766;2023-07-13T14:37:15;12.50;61.00
59975;DHT22;62136;-35.664;-63.766;2023-07-13T14:39:45;12.50;61.10
59975;DHT22;62136;-35.664;-63.766;2023-07-13T14:42:15;12.50;60.60
59975;DHT22;62136;-35.664;-63.766;2023-07-13T14:44:42;12.50;60.70
59975;DHT22;62136;-35.664;-63.766;2023-07-13T14:47:09;12.50;60.50
59975;DHT22;62136;-35.664;-63.766;2023-07-13T14:49:43;12.50;60.40
59975;DHT22;62136;-35.664;-63.766;2023-07-13T14:52:17;12.50;60.00
59975;DHT22;62136;-35.664;-63.766;2023-07-13T14:54:47;12.50;60.00
59975;DHT22;62136;-35.664;-63.766;2023-07-13T14:57:17;12.50;59.80
59975;DHT22;62136;-35.664;-63.766;2023-07-13T14:59:45;12.50;59.70
59975;DHT22;62136;-35.664;-63.766;2023-07-13T15:02:28;12.50;59.80
59975;DHT22;62136;-35.664;-63.766;2023-07-13T15:04:57;12.50;59.80
59975;DHT22;62136;-35.664;-63.766;2023-07-13T15:07:25;12.50;59.80
59975;DHT22;62136;-35.664;-63.766;2023-07-13T15:09:53;12.50;59.60
59975;DHT22;62136;-35.664;-63.766;2023-07-13T15:12:21;12.50;59.50
59975;DHT22;62136;-35.664;-63.766;2023-07-13T15:14:48;12.50;59.40
59975;DHT22;62136;-35.664;-63.766;2023-07-13T15:17:41;12.50;59.30
59975;DHT22;62136;-35.664;-63.766;2023-07-13T15:22:54;12.60;59.30
59975;DHT22;62136;-35.664;-63.766;2023-07-13T15:25:25;12.60;59.30
59975;DHT22;62136;-35.664;-63.766;2023-07-13T15:27:56;12.60;59.20
59975;DHT22;62136;-35.664;-63.766;2023-07-13T15:30:27;12.60;59.30
59975;DHT22;62136;-35.664;-63.766;2023-07-13T15:32:56;12.60;59.30
59975;DHT22;62136;-35.664;-63.766;2023-07-13T15:35:27;12.60;59.30
59975;DHT22;62136;-35.664;-63.766;2023-07-13T15:37:54;12.60;59.10
59975;DHT22;62136;-35.664;-63.766;2023-07-13T15:40:22;12.60;59.30
59975;DHT22;62136;-35.664;-63.766;2023-07-13T15:42:51;12.70;59.60
59975;DHT22;62136;-35.664;-63.766;2023-07-13T15:45:20;12.70;59.60
59975;DHT22;62136;-35.664;-63.766;2023-07-13T15:47:48;12.70;59.70
59975;DHT22;62136;-35.664;-63.766;2023-07-13T15:50:23;12.70;59.50